createdAt,value
2023-04-15T00:00:59.661Z,91766.34
2023-04-15T00:03:27.036Z,91763.41
2023-04-15T00:05:54.162Z,91774.00
2023-04-15T00:08:20.917Z,91759.97
2023-04-15T00:10:48.035Z,91760.53
2023-04-15T00:13:15.302Z,91763.09
2023-04-15T00:15:42.653Z,91755.56
2023-04-15T00:18:10.096Z,91765.56
2023-04-15T00:20:37.291Z,91766.50
2023-04-15T00:23:04.297Z,91764.28
2023-04-15T00:25:31.649Z,91760.13
2023-04-15T00:27:58.820Z,91764.72
2023-04-15T00:30:26.495Z,91758.91
2023-04-15T00:32:53.818Z,91760.84
2023-04-15T00:35:22.586Z,91763.09
2023-04-15T00:37:51.604Z,91761.63
2023-04-15T00:40:21.186Z,91759.59
2023-04-15T00:42:48.210Z,91764.56
2023-04-15T00:45:15.731Z,91751.94
2023-04-15T00:47:43.953Z,91762.63
2023-04-15T00:50:12.667Z,91762.97
2023-04-15T00:52:40.197Z,91764.00
2023-04-15T00:55:07.870Z,91755.34
2023-04-15T00:57:35.926Z,91756.03
2023-04-15T01:00:04.624Z,91756.25
2023-04-15T01:02:31.855Z,91760.41
2023-04-15T01:04:58.619Z,91768.59
2023-04-15T01:07:25.669Z,91756.69
2023-04-15T01:09:53.142Z,91763.78
2023-04-15T01:12:20.776Z,91769.28
2023-04-15T01:14:48.227Z,91759.88
2023-04-15T01:17:15.058Z,91768.59
2023-04-15T01:19:42.045Z,91768.75
2023-04-15T01:22:09.238Z,91761.22
2023-04-15T01:24:38.639Z,91762.56
2023-04-15T01:27:05.572Z,91764.94
2023-04-15T01:29:33.280Z,91769.19
2023-04-15T01:32:00.209Z,91756.16
2023-04-15T01:34:27.696Z,91763.00
2023-04-15T01:36:54.705Z,91762.22
2023-04-15T01:39:21.920Z,91761.88
2023-04-15T01:41:48.690Z,91772.13
2023-04-15T01:44:16.520Z,91760.09
2023-04-15T01:46:43.101Z,91760.66
2023-04-15T01:49:10.020Z,91758.06
2023-04-15T01:51:36.727Z,91756.50
2023-04-15T01:54:04.188Z,91754.47
2023-04-15T01:56:31.223Z,91749.31
2023-04-15T02:02:45.796Z,91744.16
2023-04-15T02:05:12.796Z,91751.34
2023-04-15T02:07:39.370Z,91749.19
2023-04-15T02:10:06.384Z,91745.94
2023-04-15T02:12:35.814Z,91743.81
2023-04-15T02:15:02.547Z,91746.94
2023-04-15T02:17:29.151Z,91747.94
2023-04-15T02:19:59.335Z,91748.41
2023-04-15T02:22:26.159Z,91744.47
2023-04-15T02:24:52.730Z,91751.09
2023-04-15T02:27:19.208Z,91744.56
2023-04-15T02:29:46.270Z,91751.31
2023-04-15T02:32:13.550Z,91750.53
2023-04-15T02:34:42.614Z,91753.69
2023-04-15T02:37:11.899Z,91754.25
2023-04-15T02:39:38.883Z,91758.03
2023-04-15T02:42:06.050Z,91748.16
2023-04-15T02:44:34.097Z,91752.19
2023-04-15T02:47:04.833Z,91756.25
2023-04-15T02:49:31.337Z,91758.72
2023-04-15T02:51:58.197Z,91757.56
2023-04-15T02:54:24.914Z,91758.47
2023-04-15T02:56:55.127Z,91755.69
2023-04-15T02:59:22.178Z,91758.38
2023-04-15T03:01:48.752Z,91757.56
2023-04-15T03:04:15.657Z,91764.09
2023-04-15T03:06:42.396Z,91765.47
2023-04-15T03:09:09.600Z,91760.84
2023-04-15T03:11:40.733Z,91756.25
2023-04-15T03:14:08.996Z,91757.91
2023-04-15T03:16:39.341Z,91744.53
2023-04-15T03:19:06.566Z,91751.53
2023-04-15T03:21:34.121Z,91751.53
2023-04-15T03:24:00.828Z,91748.59
2023-04-15T03:26:31.644Z,91744.06
2023-04-15T03:29:05.767Z,91749.03
2023-04-15T03:31:32.237Z,91745.00
2023-04-15T03:33:58.744Z,91747.13
2023-04-15T03:36:26.219Z,91737.34
2023-04-15T03:38:53.000Z,91740.75
2023-04-15T03:41:19.450Z,91737.72
2023-04-15T03:43:45.903Z,91740.84
2023-04-15T03:46:12.440Z,91736.81
2023-04-15T03:48:38.892Z,91737.59
2023-04-15T03:51:05.842Z,91738.94
2023-04-15T03:53:32.329Z,91741.31
2023-04-15T03:55:58.771Z,91743.91
2023-04-15T03:58:25.419Z,91746.81
2023-04-15T04:00:51.917Z,91744.56
2023-04-15T04:03:18.577Z,91747.28
2023-04-15T04:05:45.466Z,91745.25
2023-04-15T04:08:13.910Z,91743.25
2023-04-15T04:10:40.424Z,91742.00
2023-04-15T04:13:07.079Z,91745.94
2023-04-15T04:15:33.924Z,91737.97
2023-04-15T04:18:00.823Z,91738.84
2023-04-15T04:20:27.269Z,91744.34
2023-04-15T04:22:53.717Z,91736.94
2023-04-15T04:25:20.161Z,91740.66
2023-04-15T04:27:46.639Z,91736.13
2023-04-15T04:30:13.154Z,91740.28
2023-04-15T04:32:39.685Z,91746.06
2023-04-15T04:35:07.114Z,91742.66
2023-04-15T04:37:33.623Z,91740.53
2023-04-15T04:40:00.312Z,91747.06
2023-04-15T04:42:26.812Z,91745.59
2023-04-15T04:44:53.605Z,91742.31
2023-04-15T04:47:20.051Z,91744.47
2023-04-15T04:49:46.549Z,91744.78
2023-04-15T04:52:13.104Z,91742.19
2023-04-15T04:54:39.573Z,91746.13
2023-04-15T04:57:07.794Z,91747.81
2023-04-15T04:59:34.365Z,91751.28
2023-04-15T05:02:01.092Z,91753.75
2023-04-15T05:04:27.616Z,91749.69
2023-04-15T05:06:54.041Z,91760.84
2023-04-15T05:09:20.600Z,91755.41
2023-04-15T05:11:47.034Z,91752.16
2023-04-15T05:14:13.486Z,91758.44
2023-04-15T05:16:40.138Z,91757.75
2023-04-15T05:19:06.572Z,91762.72
2023-04-15T05:21:33.159Z,91759.41
2023-04-15T05:23:59.636Z,91764.16
2023-04-15T05:26:27.534Z,91764.81
2023-04-15T05:28:54.200Z,91763.09
2023-04-15T05:31:20.976Z,91763.09
2023-04-15T05:33:47.500Z,91769.94
2023-04-15T05:36:13.980Z,91767.69
2023-04-15T05:38:40.998Z,91764.63
2023-04-15T05:41:07.488Z,91760.88
2023-04-15T05:43:33.932Z,91763.00
2023-04-15T05:46:00.606Z,91763.19
2023-04-15T05:48:27.166Z,91765.88
2023-04-15T05:50:53.873Z,91758.19
2023-04-15T05:53:20.707Z,91757.25
2023-04-15T05:55:47.164Z,91757.66
2023-04-15T05:58:13.675Z,91754.69
2023-04-15T06:00:40.386Z,91759.19
2023-04-15T06:03:07.781Z,91757.75
2023-04-15T06:05:34.633Z,91760.25
2023-04-15T06:08:01.432Z,91758.88
2023-04-15T06:10:28.042Z,91755.09
2023-04-15T06:12:54.600Z,91760.41
2023-04-15T06:15:21.060Z,91753.25
2023-04-15T06:17:47.570Z,91746.56
2023-04-15T06:20:14.205Z,91745.59
2023-04-15T06:22:40.901Z,91750.16
2023-04-15T06:25:09.157Z,91758.63
2023-04-15T06:27:35.904Z,91748.59
2023-04-15T06:30:02.358Z,91750.81
2023-04-15T06:32:28.843Z,91753.50
2023-04-15T06:34:55.436Z,91746.06
2023-04-15T06:37:22.140Z,91759.19
2023-04-15T06:39:48.643Z,91754.38
2023-04-15T06:42:15.137Z,91751.69
2023-04-15T06:44:41.720Z,91752.88
2023-04-15T06:47:09.080Z,91755.31
2023-04-15T06:49:35.622Z,91749.22
2023-04-15T06:52:02.854Z,91754.50
2023-04-15T06:54:29.444Z,91749.38
2023-04-15T06:56:56.058Z,91750.47
2023-04-15T06:59:22.556Z,91748.75
2023-04-15T07:01:49.083Z,91745.72
2023-04-15T07:04:15.664Z,91744.00
2023-04-15T07:06:42.139Z,91738.84
2023-04-15T07:09:08.752Z,91747.19
2023-04-15T07:11:35.318Z,91743.09
2023-04-15T07:14:02.000Z,91737.94
2023-04-15T07:16:29.946Z,91748.38
2023-04-15T07:18:57.148Z,91742.69
2023-04-15T07:21:24.729Z,91742.69
2023-04-15T07:23:51.173Z,91736.72
2023-04-15T07:26:17.652Z,91737.53
2023-04-15T07:28:47.701Z,91742.56
2023-04-15T07:31:14.856Z,91741.50
2023-04-15T07:33:41.798Z,91743.88
2023-04-15T07:36:08.391Z,91743.88
2023-04-15T07:38:34.901Z,91743.84
2023-04-15T07:41:01.429Z,91744.38
2023-04-15T07:43:27.962Z,91745.66
2023-04-15T07:45:55.533Z,91744.56
2023-04-15T07:48:22.995Z,91744.22
2023-04-15T07:50:49.504Z,91741.56
2023-04-15T07:53:16.006Z,91746.72
2023-04-15T07:55:42.430Z,91738.28
2023-04-15T07:58:08.899Z,91744.47
2023-04-15T08:00:36.059Z,91748.53
2023-04-15T08:03:03.299Z,91747.44
2023-04-15T08:05:30.253Z,91743.75
2023-04-15T08:07:57.243Z,91746.31
2023-04-15T08:10:24.771Z,91746.53
2023-04-15T08:12:54.231Z,91745.88
2023-04-15T08:15:21.559Z,91745.56
2023-04-15T08:17:48.018Z,91745.03
2023-04-15T08:20:14.589Z,91746.81
2023-04-15T08:22:41.689Z,91753.25
2023-04-15T08:25:09.482Z,91754.19
2023-04-15T08:27:36.232Z,91754.63
2023-04-15T08:30:04.907Z,91759.72
2023-04-15T08:32:31.981Z,91751.44
2023-04-15T08:34:58.597Z,91752.13
2023-04-15T08:37:25.057Z,91757.25
2023-04-15T08:39:51.520Z,91756.13
2023-04-15T08:42:23.300Z,91760.69
2023-04-15T08:44:51.091Z,91758.22
2023-04-15T08:47:21.700Z,91758.53
2023-04-15T08:49:53.823Z,91754.56
2023-04-15T08:52:20.817Z,91754.81
2023-04-15T08:54:48.098Z,91762.88
2023-04-15T08:57:15.492Z,91762.69
2023-04-15T08:59:43.584Z,91755.22
2023-04-15T09:02:10.171Z,91753.66
2023-04-15T09:04:36.653Z,91764.19
2023-04-15T09:07:03.125Z,91755.59
2023-04-15T09:09:29.650Z,91763.13
2023-04-15T09:11:56.734Z,91762.94
2023-04-15T09:14:23.313Z,91764.72
2023-04-15T09:17:03.221Z,91772.09
2023-04-15T09:19:30.436Z,91772.19
2023-04-15T09:21:59.299Z,91771.31
2023-04-15T09:24:33.580Z,91773.06
2023-04-15T09:27:00.530Z,91771.03
2023-04-15T09:29:27.085Z,91783.91
2023-04-15T09:31:53.669Z,91786.28
2023-04-15T09:34:21.110Z,91782.34
2023-04-15T09:36:49.762Z,91788.81
2023-04-15T09:39:17.471Z,91787.81
2023-04-15T09:41:44.631Z,91790.28
2023-04-15T09:44:24.688Z,91785.97
2023-04-15T09:46:51.409Z,91788.69
2023-04-15T09:49:18.047Z,91790.59
2023-04-15T09:51:54.114Z,91792.94
2023-04-15T09:54:38.430Z,91791.88
2023-04-15T09:57:07.264Z,91792.16
2023-04-15T09:59:34.227Z,91790.28
2023-04-15T10:02:02.448Z,91799.16
2023-04-15T10:04:29.764Z,91797.81
2023-04-15T10:06:57.477Z,91801.44
2023-04-15T10:09:24.088Z,91796.47
2023-04-15T10:11:51.370Z,91798.53
2023-04-15T10:14:19.646Z,91796.97
2023-04-15T10:16:49.030Z,91794.22
2023-04-15T10:19:18.912Z,91801.03
2023-04-15T10:21:46.139Z,91797.34
2023-04-15T10:24:13.155Z,91805.34
2023-04-15T10:26:39.952Z,91803.19
2023-04-15T10:29:06.813Z,91801.38
2023-04-15T10:31:33.737Z,91811.81
2023-04-15T10:34:04.282Z,91817.25
2023-04-15T10:36:30.995Z,91811.63
2023-04-15T10:38:57.687Z,91813.28
2023-04-15T10:41:26.804Z,91816.72
2023-04-15T10:44:02.835Z,91816.50
2023-04-15T10:46:40.748Z,91806.69
2023-04-15T10:49:18.012Z,91816.25
2023-04-15T10:51:46.797Z,91821.66
2023-04-15T10:54:16.179Z,91819.19
2023-04-15T10:56:44.891Z,91823.53
2023-04-15T10:59:11.618Z,91816.19
2023-04-15T11:01:55.025Z,91821.91
2023-04-15T11:04:57.565Z,91824.13
2023-04-15T11:07:51.923Z,91819.88
2023-04-15T11:10:18.507Z,91818.78
2023-04-15T11:12:45.552Z,91825.56
2023-04-15T11:15:32.477Z,91826.22
2023-04-15T11:18:08.559Z,91832.19
2023-04-15T11:20:35.213Z,91831.09
2023-04-15T11:23:14.387Z,91838.41
2023-04-15T11:25:43.250Z,91837.72
2023-04-15T11:28:11.420Z,91844.50
2023-04-15T11:30:38.712Z,91849.06
2023-04-15T11:33:09.148Z,91852.81
2023-04-15T11:35:36.012Z,91858.97
2023-04-15T11:38:08.599Z,91857.69
2023-04-15T11:40:35.763Z,91859.38
2023-04-15T11:43:06.193Z,91869.00
2023-04-15T11:45:33.067Z,91869.91
2023-04-15T11:48:26.835Z,91868.22
2023-04-15T11:51:01.219Z,91876.31
2023-04-15T11:53:46.040Z,91877.09
2023-04-15T11:56:23.921Z,91878.50
2023-04-15T11:58:57.153Z,91887.16
2023-04-15T12:01:33.540Z,91894.53
2023-04-15T12:04:01.669Z,91895.66
2023-04-15T12:06:34.876Z,91892.78
2023-04-15T12:09:10.102Z,91902.56
2023-04-15T12:11:44.303Z,91902.94
2023-04-15T12:14:26.164Z,91911.56
2023-04-15T12:16:54.496Z,91915.25
2023-04-15T12:19:32.500Z,91913.19
2023-04-15T12:22:01.441Z,91922.38
2023-04-15T12:24:30.927Z,91935.19
2023-04-15T12:27:01.906Z,91935.19
2023-04-15T12:29:30.468Z,91935.44
2023-04-15T12:32:07.804Z,91940.91
2023-04-15T12:34:37.094Z,91949.38
2023-04-15T12:37:14.291Z,91955.28
2023-04-15T12:39:42.547Z,91951.66
2023-04-15T12:42:10.291Z,91966.56
2023-04-15T12:44:38.281Z,91966.25
2023-04-15T12:47:05.508Z,91972.19
2023-04-15T12:49:33.489Z,91966.78
2023-04-15T12:52:01.533Z,91973.09
2023-04-15T12:54:29.957Z,91970.88
2023-04-15T12:56:56.959Z,91978.16
2023-04-15T12:59:24.301Z,91983.38
2023-04-15T13:01:52.519Z,91984.34
2023-04-15T13:04:20.238Z,91988.47
2023-04-15T13:06:46.889Z,91985.06
2023-04-15T13:09:13.613Z,91988.13
2023-04-15T13:11:40.642Z,91999.81
2023-04-15T13:14:08.965Z,92002.06
2023-04-15T13:16:35.928Z,92011.09
2023-04-15T13:19:03.963Z,92011.31
2023-04-15T13:21:35.002Z,92026.09
2023-04-15T13:24:02.177Z,92053.16
2023-04-15T13:26:29.120Z,92066.59
2023-04-15T13:28:56.227Z,92074.09
2023-04-15T13:31:22.707Z,92077.13
2023-04-15T13:33:49.329Z,92080.75
2023-04-15T13:36:15.850Z,92072.31
2023-04-15T13:38:42.419Z,92051.34
2023-04-15T13:41:08.966Z,92058.09
2023-04-15T13:43:35.749Z,92059.78
2023-04-15T13:46:02.624Z,92054.38
2023-04-15T13:48:29.212Z,92052.84
2023-04-15T13:50:55.754Z,92054.81
2023-04-15T13:53:33.887Z,92056.28
2023-04-15T13:56:07.496Z,92057.53
2023-04-15T13:58:34.288Z,92055.63
2023-04-15T14:01:02.545Z,92054.59
2023-04-15T14:03:30.575Z,92061.19
2023-04-15T14:05:57.924Z,92059.91
2023-04-15T14:08:25.038Z,92057.22
2023-04-15T14:10:51.459Z,92060.06
2023-04-15T14:13:19.509Z,92063.25
2023-04-15T14:15:46.078Z,92057.94
2023-04-15T14:18:12.559Z,92067.72
2023-04-15T14:20:39.009Z,92059.06
2023-04-15T14:23:05.704Z,92060.72
2023-04-15T14:25:33.942Z,92059.59
2023-04-15T14:28:01.605Z,92061.50
2023-04-15T14:30:28.101Z,92067.34
2023-04-15T14:32:54.890Z,92064.25
2023-04-15T14:35:21.563Z,92065.31
2023-04-15T14:37:48.046Z,92067.72
2023-04-15T14:40:14.539Z,92069.28
2023-04-15T14:42:41.038Z,92070.38
2023-04-15T14:45:08.197Z,92079.25
2023-04-15T14:47:34.670Z,92083.78
2023-04-15T14:50:01.335Z,92085.16
2023-04-15T14:52:27.849Z,92092.47
2023-04-15T14:54:54.304Z,92088.66
2023-04-15T14:57:20.722Z,92091.66
2023-04-15T14:59:47.312Z,92087.34
2023-04-15T15:02:17.291Z,92095.56
2023-04-15T15:04:52.998Z,92091.66
2023-04-15T15:07:19.563Z,92100.47
2023-04-15T15:09:46.142Z,92105.75
2023-04-15T15:12:12.600Z,92104.31
2023-04-15T15:14:39.004Z,92105.59
2023-04-15T15:17:05.783Z,92115.47
2023-04-15T15:19:32.310Z,92106.31
2023-04-15T15:21:58.813Z,92110.91
2023-04-15T15:24:25.580Z,92122.53
2023-04-15T15:26:52.091Z,92126.41
2023-04-15T15:29:18.588Z,92125.44
2023-04-15T15:31:45.163Z,92126.03
2023-04-15T15:34:11.773Z,92129.69
2023-04-15T15:36:38.255Z,92134.78
2023-04-15T15:39:05.377Z,92132.19
2023-04-15T15:41:33.344Z,92136.84
2023-04-15T15:43:59.994Z,92137.34
2023-04-15T15:46:28.095Z,92131.53
2023-04-15T15:48:55.299Z,92139.09
2023-04-15T15:51:21.792Z,92137.97
2023-04-15T15:53:48.352Z,92140.53
2023-04-15T15:56:14.877Z,92145.81
2023-04-15T15:58:44.934Z,92154.69
2023-04-15T16:01:11.808Z,92158.03
2023-04-15T16:03:38.518Z,92166.31
2023-04-15T16:06:05.192Z,92164.56
2023-04-15T16:08:31.631Z,92168.84
2023-04-15T16:10:58.200Z,92167.19
2023-04-15T16:13:24.783Z,92176.47
2023-04-15T16:15:51.247Z,92174.47
2023-04-15T16:18:18.236Z,92178.72
2023-04-15T16:20:44.807Z,92187.19
2023-04-15T16:23:16.362Z,92193.25
2023-04-15T16:25:44.264Z,92197.22
2023-04-15T16:28:23.149Z,92198.31
2023-04-15T16:30:53.124Z,92208.81
2023-04-15T16:33:19.597Z,92208.28
2023-04-15T16:35:46.053Z,92211.19
2023-04-15T16:38:12.558Z,92227.25
2023-04-15T16:40:39.024Z,92225.69
2023-04-15T16:43:07.446Z,92228.34
2023-04-15T16:45:33.932Z,92224.16
2023-04-15T16:48:00.626Z,92231.28
2023-04-15T16:50:27.308Z,92240.97
2023-04-15T16:52:54.482Z,92229.97
2023-04-15T16:55:20.931Z,92229.19
2023-04-15T16:58:00.322Z,92235.22
2023-04-15T17:00:29.527Z,92237.31
2023-04-15T17:02:56.190Z,92233.91
2023-04-15T17:05:22.777Z,92238.34
2023-04-15T17:07:49.239Z,92239.38
2023-04-15T17:10:16.163Z,92247.53
2023-04-15T17:12:42.660Z,92239.16
2023-04-15T17:15:09.786Z,92247.31
2023-04-15T17:17:36.418Z,92244.16
2023-04-15T17:20:03.715Z,92246.50
2023-04-15T17:22:30.198Z,92251.22
2023-04-15T17:24:56.779Z,92257.78
2023-04-15T17:27:24.657Z,92267.75
2023-04-15T17:29:51.481Z,92269.81
2023-04-15T17:32:18.051Z,92274.84
2023-04-15T17:34:50.773Z,92278.50
2023-04-15T17:37:18.098Z,92283.72
2023-04-15T17:39:44.663Z,92293.97
2023-04-15T17:42:11.550Z,92296.06
2023-04-15T17:44:38.042Z,92301.81
2023-04-15T17:47:04.693Z,92307.84
2023-04-15T17:49:32.668Z,92302.88
2023-04-15T17:51:59.129Z,92309.16
2023-04-15T17:54:25.780Z,92313.09
2023-04-15T17:56:52.277Z,92310.22
2023-04-15T17:59:18.809Z,92312.31
2023-04-15T18:01:47.982Z,92312.56
2023-04-15T18:04:14.855Z,92328.03
2023-04-15T18:06:41.554Z,92325.91
2023-04-15T18:09:09.045Z,92332.19
2023-04-15T18:11:35.625Z,92337.44
2023-04-15T18:14:03.665Z,92347.91
2023-04-15T18:16:30.396Z,92350.53
2023-04-15T18:18:57.035Z,92348.69
2023-04-15T18:21:23.775Z,92356.28
2023-04-15T18:23:50.427Z,92356.81
2023-04-15T18:26:16.896Z,92367.78
2023-04-15T18:28:43.522Z,92369.88
2023-04-15T18:31:09.999Z,92382.97
2023-04-15T18:33:36.580Z,92378.22
2023-04-15T18:36:03.147Z,92380.78
2023-04-15T18:38:29.707Z,92390.22
2023-04-15T18:40:56.173Z,92401.66
2023-04-15T18:43:22.653Z,92391.41
2023-04-15T18:45:51.043Z,92406.59
2023-04-15T18:48:17.809Z,92408.66
2023-04-15T18:50:44.424Z,92414.41
2023-04-15T18:53:10.955Z,92418.81
2023-04-15T18:55:39.620Z,92431.34
2023-04-15T18:58:09.216Z,92433.47
2023-04-15T19:00:38.922Z,92441.28
2023-04-15T19:03:06.268Z,92442.88
2023-04-15T19:05:33.100Z,92432.94
2023-04-15T19:07:59.872Z,92422.16
2023-04-15T19:10:27.987Z,92435.53
2023-04-15T19:12:55.223Z,92445.72
2023-04-15T19:15:21.844Z,92448.63
2023-04-15T19:17:48.428Z,92452.19
2023-04-15T19:20:15.058Z,92456.25
2023-04-15T19:22:43.212Z,92472.84
2023-04-15T19:25:10.116Z,92481.69
2023-04-15T19:27:38.212Z,92477.41
2023-04-15T19:30:06.944Z,92486.72
2023-04-15T19:32:34.276Z,92491.66
2023-04-15T19:35:00.904Z,92496.03
2023-04-15T19:37:27.490Z,92499.75
2023-04-15T19:39:54.651Z,92505.44
2023-04-15T19:42:21.450Z,92510.09
2023-04-15T19:44:47.924Z,92508.00
2023-04-15T19:47:14.489Z,92506.56
2023-04-15T19:49:41.038Z,92515.22
2023-04-15T19:52:07.529Z,92517.25
2023-04-15T19:54:33.987Z,92519.81
2023-04-15T19:57:02.024Z,92516.16
2023-04-15T19:59:28.607Z,92520.00
2023-04-15T20:01:55.262Z,92516.63
2023-04-15T20:04:22.688Z,92523.66
2023-04-15T20:06:49.716Z,92519.59
2023-04-15T20:09:16.561Z,92521.41
2023-04-15T20:12:47.752Z,92514.59
2023-04-15T20:14:29.818Z,92513.59
2023-04-15T20:16:56.363Z,92518.56
2023-04-15T20:19:22.832Z,92517.41
2023-04-15T20:21:50.826Z,92522.63
2023-04-15T20:24:20.158Z,92525.47
2023-04-15T20:26:46.873Z,92521.63
2023-04-15T20:29:13.878Z,92530.59
2023-04-15T20:31:40.371Z,92532.50
2023-04-15T20:34:07.187Z,92535.91
2023-04-15T20:36:34.301Z,92527.75
2023-04-15T20:39:01.106Z,92527.53
2023-04-15T20:41:27.546Z,92532.97
2023-04-15T20:43:54.017Z,92534.72
2023-04-15T20:46:21.779Z,92533.47
2023-04-15T20:48:48.610Z,92530.78
2023-04-15T20:51:15.252Z,92537.09
2023-04-15T20:53:42.074Z,92543.25
2023-04-15T20:56:08.650Z,92544.59
2023-04-15T20:58:35.068Z,92550.19
2023-04-15T21:01:02.138Z,92551.94
2023-04-15T21:03:28.951Z,92544.28
2023-04-15T21:05:55.756Z,92553.03
2023-04-15T21:08:29.107Z,92552.38
2023-04-15T21:10:56.702Z,92550.34
2023-04-15T21:13:23.989Z,92549.56
2023-04-15T21:15:53.383Z,92554.03
2023-04-15T21:18:23.381Z,92550.66
2023-04-15T21:21:00.819Z,92560.28
2023-04-15T21:23:31.191Z,92547.03
2023-04-15T21:25:58.779Z,92554.09
2023-04-15T21:28:27.889Z,92551.75
2023-04-15T21:30:54.376Z,92554.22
2023-04-15T21:33:20.867Z,92560.13
2023-04-15T21:35:47.456Z,92556.41
2023-04-15T21:38:14.127Z,92559.88
2023-04-15T21:40:41.008Z,92558.84
2023-04-15T21:43:08.304Z,92563.09
2023-04-15T21:45:35.575Z,92565.81
2023-04-15T21:48:08.181Z,92572.59
2023-04-15T21:50:38.072Z,92565.25
2023-04-15T21:53:07.026Z,92559.31
2023-04-15T21:55:33.472Z,92566.28
2023-04-15T21:58:00.024Z,92555.38
2023-04-15T22:00:26.614Z,92563.75
2023-04-15T22:02:53.241Z,92569.25
2023-04-15T22:05:19.823Z,92570.06
2023-04-15T22:07:46.416Z,92573.78
2023-04-15T22:10:12.872Z,92573.78
2023-04-15T22:12:42.258Z,92584.13
2023-04-15T22:15:09.175Z,92584.75
2023-04-15T22:17:35.683Z,92583.94
2023-04-15T22:20:02.652Z,92586.44
2023-04-15T22:22:43.343Z,92585.91
2023-04-15T22:25:11.041Z,92576.66
2023-04-15T22:27:37.493Z,92584.22
2023-04-15T22:30:04.625Z,92590.00
2023-04-15T22:32:31.278Z,92589.91
2023-04-15T22:34:57.728Z,92592.75
2023-04-15T22:37:24.231Z,92597.13
2023-04-15T22:39:51.780Z,92602.13
2023-04-15T22:42:18.291Z,92600.34
2023-04-15T22:44:44.764Z,92607.28
2023-04-15T22:47:11.220Z,92609.22
2023-04-15T22:49:37.684Z,92604.22
2023-04-15T22:52:04.306Z,92611.72
2023-04-15T22:54:31.137Z,92613.34
2023-04-15T22:56:57.881Z,92603.50
2023-04-15T22:59:24.412Z,92612.50
2023-04-15T23:01:51.064Z,92616.00
2023-04-15T23:04:23.451Z,92610.91
2023-04-15T23:06:52.455Z,92616.47
2023-04-15T23:09:19.120Z,92617.06
2023-04-15T23:11:45.572Z,92610.91
2023-04-15T23:14:12.032Z,92620.78
2023-04-15T23:16:38.569Z,92618.97
2023-04-15T23:19:05.118Z,92622.28
2023-04-15T23:21:31.622Z,92615.03
2023-04-15T23:23:58.097Z,92618.53
2023-04-15T23:26:24.605Z,92621.13
2023-04-15T23:28:51.094Z,92629.72
2023-04-15T23:31:17.560Z,92623.72
2023-04-15T23:33:44.080Z,92623.16
2023-04-15T23:36:10.563Z,92629.41
2023-04-15T23:38:37.507Z,92638.22
2023-04-15T23:41:03.969Z,92636.88
2023-04-15T23:43:30.586Z,92628.09
2023-04-15T23:45:57.054Z,92634.78
2023-04-15T23:48:26.151Z,92636.78
2023-04-15T23:50:52.629Z,92641.66
2023-04-15T23:53:19.062Z,92638.25
2023-04-15T23:55:45.535Z,92630.31
2023-04-15T23:58:11.985Z,92633.81
